Aviation Digital Data Service (ADDS)

Output produced by METARs form (0005 UTC 19 August 2019)
found at http://www.aviationweather.gov/metar/data/
 
Forecast for: LIPZ (VENEZIA/TESSERA , IT)
Text: TAF LIPZ 182300Z 1900/2006 02008KT CAVOK
Forecast period: 0000 to 0800 UTC 19 August 2019
Forecast type: FROM: standard forecast or significant change
Winds: from the NNE (20 degrees) at 9 MPH (8 knots; 4.1 m/s)
Visibility: 6 or more miles 10+ km)
Ceiling: unknown
Clouds: missing
Weather: NSW  (no significant weather)
Text: BECMG 1908/1911 15010KT
Forecast period: 0800 to 1600 UTC 19 August 2019
Forecast type: BECOMING: Conditions expected to become as follows by 1100 UTC 19 August 2019
Winds: from the SSE (150 degrees) at 12 MPH (10 knots; 5.1 m/s)
Visibility: 6 or more miles 10+ km)
Ceiling: unknown
Clouds: missing
Weather: NSW  (no significant weather)
Text: BECMG 1916/1919 03008KT
Forecast period: 1600 UTC 19 August 2019 to 0600 UTC 20 August 2019
Forecast type: BECOMING: Conditions expected to become as follows by 1900 UTC 19 August 2019
Winds: from the NNE (30 degrees) at 9 MPH (8 knots; 4.1 m/s)
Visibility: 6 or more miles 10+ km)
Ceiling: unknown
Clouds: missing
Weather: NSW  (no significant weather)